sensor_id;sensor_type;location;lat;lon;timestamp;temperature;humidity
35244;DHT22;37916;52.160;21.066;2022-10-10T15:08:54;14.10;55.70
35244;DHT22;37916;52.160;21.066;2022-10-10T15:18:55;13.70;59.00
35244;DHT22;37916;52.160;21.066;2022-10-10T15:28:55;13.40;60.40
35244;DHT22;37916;52.160;21.066;2022-10-10T15:38:56;13.00;62.40
35244;DHT22;37916;52.160;21.066;2022-10-10T15:49:01;12.70;63.70
35244;DHT22;37916;52.160;21.066;2022-10-10T15:59:02;12.30;65.80
35244;DHT22;37916;52.160;21.066;2022-10-10T16:09:03;11.90;67.30
35244;DHT22;37916;52.160;21.066;2022-10-10T17:10:43;10.30;75.00
35244;DHT22;37916;52.160;21.066;2022-10-10T17:30:54;10.00;76.80
35244;DHT22;37916;52.160;21.066;2022-10-10T17:40:56;9.80;78.80
35244;DHT22;37916;52.160;21.066;2022-10-10T17:51:27;9.60;79.90
35244;DHT22;37916;52.160;21.066;2022-10-10T18:11:47;9.30;80.40
35244;DHT22;37916;52.160;21.066;2022-10-10T18:21:48;9.20;80.80
35244;DHT22;37916;52.160;21.066;2022-10-10T18:31:55;9.00;81.90
35244;DHT22;37916;52.160;21.066;2022-10-10T18:52:09;8.90;82.50
35244;DHT22;37916;52.160;21.066;2022-10-10T19:02:10;8.90;82.90
35244;DHT22;37916;52.160;21.066;2022-10-10T19:12:11;8.80;83.00
35244;DHT22;37916;52.160;21.066;2022-10-10T19:22:12;8.60;82.80
35244;DHT22;37916;52.160;21.066;2022-10-10T19:32:12;8.60;83.20
35244;DHT22;37916;52.160;21.066;2022-10-10T19:42:13;8.50;83.10
35244;DHT22;37916;52.160;21.066;2022-10-10T19:52:14;8.40;83.50
35244;DHT22;37916;52.160;21.066;2022-10-10T20:02:17;8.40;83.70
35244;DHT22;37916;52.160;21.066;2022-10-10T20:12:18;8.40;84.10
35244;DHT22;37916;52.160;21.066;2022-10-10T20:22:25;8.20;84.50
35244;DHT22;37916;52.160;21.066;2022-10-10T20:32:32;8.10;85.00
35244;DHT22;37916;52.160;21.066;2022-10-10T20:42:54;8.10;85.30
35244;DHT22;37916;52.160;21.066;2022-10-10T20:52:59;8.00;85.20
35244;DHT22;37916;52.160;21.066;2022-10-10T21:02:59;8.00;85.70
35244;DHT22;37916;52.160;21.066;2022-10-10T21:13:00;8.00;85.60
35244;DHT22;37916;52.160;21.066;2022-10-10T21:23:01;8.00;85.70
35244;DHT22;37916;52.160;21.066;2022-10-10T21:33:04;7.90;85.70
35244;DHT22;37916;52.160;21.066;2022-10-10T21:43:05;8.00;85.50
35244;DHT22;37916;52.160;21.066;2022-10-10T21:53:07;8.00;85.40
35244;DHT22;37916;52.160;21.066;2022-10-10T22:03:13;8.10;84.70
35244;DHT22;37916;52.160;21.066;2022-10-10T22:13:14;8.30;84.50
35244;DHT22;37916;52.160;21.066;2022-10-10T22:23:17;8.30;84.00
35244;DHT22;37916;52.160;21.066;2022-10-10T22:33:17;8.40;83.70
35244;DHT22;37916;52.160;21.066;2022-10-10T22:43:18;8.40;83.60
35244;DHT22;37916;52.160;21.066;2022-10-10T22:53:19;8.60;83.00
35244;DHT22;37916;52.160;21.066;2022-10-10T23:03:20;8.60;82.60
35244;DHT22;37916;52.160;21.066;2022-10-10T23:13:21;8.80;81.90
35244;DHT22;37916;52.160;21.066;2022-10-10T23:23:22;8.90;81.80
35244;DHT22;37916;52.160;21.066;2022-10-10T23:33:22;8.80;81.50
35244;DHT22;37916;52.160;21.066;2022-10-10T23:43:23;8.80;81.70
35244;DHT22;37916;52.160;21.066;2022-10-10T23:53:24;8.70;81.70
